createdAt,value
2023-02-08T11:44:04.264Z,315.00
2023-02-08T11:45:06.350Z,315.00
2023-02-08T11:46:10.187Z,306.72
2023-02-08T11:47:14.017Z,180.00
2023-02-08T11:48:10.011Z,180.00
2023-02-08T11:49:18.507Z,180.00
2023-02-08T11:50:07.132Z,180.00
2023-02-08T11:51:04.154Z,180.00
2023-02-08T11:52:11.595Z,180.00
2023-02-08T11:53:04.418Z,180.00
2023-02-08T11:54:04.288Z,180.00
2023-02-08T11:55:04.492Z,180.00
2023-02-08T11:56:13.410Z,180.00
2023-02-08T11:57:04.474Z,180.00
2023-02-08T11:58:04.335Z,180.00
2023-02-08T11:59:04.453Z,180.00
2023-02-08T12:00:04.394Z,180.00
2023-02-08T12:01:04.368Z,180.00
2023-02-08T12:06:53.105Z,315.00
2023-02-08T12:07:54.690Z,315.00
2023-02-08T12:08:53.272Z,315.00
2023-02-08T12:09:53.169Z,278.64
2023-02-08T12:14:06.668Z,261.52
2023-02-08T12:15:06.353Z,180.00
2023-02-08T12:16:06.324Z,180.00
2023-02-08T12:19:03.203Z,315.00
2023-02-08T12:20:00.364Z,315.00
2023-02-08T12:24:47.770Z,315.00
2023-02-08T12:26:47.924Z,315.00
2023-02-08T12:30:14.786Z,259.38
2023-02-08T12:31:14.770Z,180.00
2023-02-08T12:35:33.026Z,191.79
2023-02-08T12:36:21.776Z,180.00
2023-02-08T12:39:56.236Z,315.00
2023-02-08T12:40:56.203Z,255.11
2023-02-08T12:44:02.432Z,315.00
2023-02-08T12:53:47.012Z,225.54
2023-02-08T12:54:47.210Z,180.00
2023-02-08T12:55:47.527Z,180.00
2023-02-08T12:57:00.376Z,180.00
2023-02-08T12:57:47.240Z,180.00
2023-02-08T12:58:47.257Z,180.00
2023-02-08T12:59:47.232Z,180.00
2023-02-08T13:00:47.180Z,180.00
2023-02-08T13:01:47.255Z,180.00
2023-02-08T13:02:47.300Z,180.00
2023-02-08T13:03:47.212Z,180.00
2023-02-08T13:07:52.837Z,315.00
2023-02-08T13:08:52.909Z,315.00
2023-02-08T13:09:53.035Z,312.39
2023-02-08T13:10:52.995Z,180.00
2023-02-08T13:11:53.052Z,180.00
2023-02-08T13:12:53.135Z,180.00
2023-02-08T13:13:53.070Z,180.00
2023-02-08T13:14:53.512Z,180.00
2023-02-08T13:15:53.052Z,180.00
2023-02-08T13:16:52.974Z,180.00
2023-02-08T13:17:53.042Z,180.00
2023-02-08T13:19:00.337Z,180.00
2023-02-08T13:20:00.117Z,180.00
2023-02-08T13:20:53.026Z,180.00
2023-02-08T13:21:53.070Z,180.00
2023-02-08T13:22:55.212Z,180.00
2023-02-08T13:23:53.447Z,180.00
2023-02-08T13:25:06.316Z,180.00
2023-02-08T13:25:53.144Z,180.00
2023-02-08T13:26:53.013Z,180.00
2023-02-08T13:27:53.040Z,180.00
2023-02-08T13:28:53.121Z,180.00
2023-02-08T13:29:54.184Z,180.00
2023-02-08T13:30:53.318Z,180.00
2023-02-08T13:31:53.029Z,180.00
2023-02-08T13:32:54.762Z,180.00
2023-02-08T13:34:01.356Z,180.00
2023-02-08T13:34:57.640Z,180.00
2023-02-08T13:35:55.724Z,180.00
2023-02-08T13:36:53.161Z,180.00
2023-02-08T13:37:53.146Z,180.00
2023-02-08T13:38:53.074Z,180.00
2023-02-08T13:39:55.026Z,180.00
2023-02-08T13:41:05.299Z,180.00
2023-02-08T13:41:53.196Z,180.00
2023-02-08T13:42:53.239Z,180.00
2023-02-08T13:43:53.171Z,180.00
2023-02-08T13:44:53.069Z,180.00
2023-02-08T13:45:55.303Z,180.00
2023-02-08T13:46:53.111Z,180.00
2023-02-08T13:47:54.805Z,180.00
2023-02-08T13:48:53.234Z,180.00
2023-02-08T13:49:53.595Z,180.00
2023-02-08T13:50:59.389Z,180.00
2023-02-08T13:51:56.061Z,180.00
2023-02-08T13:52:55.146Z,180.00
2023-02-08T13:53:53.312Z,180.00
2023-02-08T13:54:53.358Z,180.00
2023-02-08T13:55:56.451Z,180.00
2023-02-08T13:56:53.203Z,180.00
2023-02-08T13:57:53.176Z,180.00
2023-02-08T13:58:54.163Z,180.00
2023-02-08T14:00:00.490Z,180.00
2023-02-08T14:00:53.346Z,180.00
2023-02-08T14:01:53.375Z,180.00
2023-02-08T14:03:15.131Z,180.00
2023-02-08T14:03:53.199Z,180.00
2023-02-08T14:04:53.369Z,180.00
2023-02-08T14:06:53.320Z,180.00
2023-02-08T14:07:53.258Z,180.00
2023-02-08T14:08:53.163Z,180.00
2023-02-08T14:09:53.256Z,180.00
2023-02-08T14:10:53.301Z,180.00
2023-02-08T14:11:53.283Z,180.00
2023-02-08T14:12:53.321Z,180.00
2023-02-08T14:13:53.254Z,180.00
2023-02-08T14:14:53.649Z,180.00
2023-02-08T14:15:53.240Z,180.00
2023-02-08T14:16:53.242Z,180.00
2023-02-08T14:17:53.336Z,180.00
2023-02-08T14:18:53.399Z,180.00
2023-02-08T14:19:53.236Z,180.00
2023-02-08T14:20:53.298Z,180.00
2023-02-08T14:21:53.214Z,180.00
2023-02-08T14:22:53.179Z,180.00
2023-02-08T14:23:53.234Z,180.00
2023-02-08T14:24:53.283Z,180.00
2023-02-08T14:25:53.261Z,180.00
2023-02-08T14:26:53.353Z,180.00
2023-02-08T14:27:53.379Z,180.00
2023-02-08T14:28:53.321Z,180.00
2023-02-08T14:29:53.347Z,180.00
2023-02-08T14:30:53.258Z,180.00
2023-02-08T14:31:53.441Z,180.00
2023-02-08T14:32:53.363Z,180.00
2023-02-08T14:33:53.268Z,180.00
2023-02-08T14:34:53.340Z,180.00
2023-02-08T14:35:53.355Z,180.00
2023-02-08T14:36:53.254Z,180.00
